sensor_id;sensor_type;location;lat;lon;timestamp;pressure;altitude;pressure_sealevel;temperature;humidity
76611;BME280;65503;48.534;9.062;2023-06-19T00:01:27;96595.22;;;25.50;41.17
76611;BME280;65503;48.534;9.062;2023-06-19T00:03:53;96596.22;;;25.45;41.61
76611;BME280;65503;48.534;9.062;2023-06-19T00:06:20;96595.97;;;25.38;41.96
76611;BME280;65503;48.534;9.062;2023-06-19T00:08:46;96591.66;;;25.25;42.04
76611;BME280;65503;48.534;9.062;2023-06-19T00:11:13;96596.78;;;25.18;42.03
76611;BME280;65503;48.534;9.062;2023-06-19T00:13:39;96595.44;;;25.12;42.00
76611;BME280;65503;48.534;9.062;2023-06-19T00:16:06;96589.16;;;25.08;42.29
76611;BME280;65503;48.534;9.062;2023-06-19T00:18:32;96589.34;;;25.03;41.76
76611;BME280;65503;48.534;9.062;2023-06-19T00:21:08;96589.03;;;25.04;41.55
76611;BME280;65503;48.534;9.062;2023-06-19T00:23:34;96583.50;;;25.01;41.81
76611;BME280;65503;48.534;9.062;2023-06-19T00:26:01;96590.88;;;24.92;42.66
76611;BME280;65503;48.534;9.062;2023-06-19T00:28:28;96584.78;;;24.83;42.42
76611;BME280;65503;48.534;9.062;2023-06-19T00:30:55;96593.03;;;24.78;42.82
76611;BME280;65503;48.534;9.062;2023-06-19T00:33:22;96592.78;;;24.70;43.09
76611;BME280;65503;48.534;9.062;2023-06-19T00:35:52;96584.44;;;24.63;43.42
76611;BME280;65503;48.534;9.062;2023-06-19T00:38:18;96587.53;;;24.53;43.49
76611;BME280;65503;48.534;9.062;2023-06-19T00:40:45;96592.91;;;24.53;44.06
76611;BME280;65503;48.534;9.062;2023-06-19T00:43:11;96596.72;;;24.52;43.66
76611;BME280;65503;48.534;9.062;2023-06-19T00:45:38;96592.13;;;24.53;43.85
76611;BME280;65503;48.534;9.062;2023-06-19T00:48:05;96599.88;;;24.54;43.57
76611;BME280;65503;48.534;9.062;2023-06-19T00:50:32;96598.09;;;24.58;43.30
76611;BME280;65503;48.534;9.062;2023-06-19T00:52:59;96608.94;;;24.70;42.83
76611;BME280;65503;48.534;9.062;2023-06-19T00:55:29;96604.41;;;24.83;42.54
76611;BME280;65503;48.534;9.062;2023-06-19T00:58:00;96602.75;;;24.91;42.79
76611;BME280;65503;48.534;9.062;2023-06-19T01:00:27;96612.88;;;24.94;42.22
76611;BME280;65503;48.534;9.062;2023-06-19T01:02:53;96613.69;;;24.94;42.43
76611;BME280;65503;48.534;9.062;2023-06-19T01:05:20;96605.13;;;24.92;42.34
76611;BME280;65503;48.534;9.062;2023-06-19T01:07:59;96618.97;;;25.03;42.29
76611;BME280;65503;48.534;9.062;2023-06-19T01:10:30;96628.63;;;25.04;42.48
76611;BME280;65503;48.534;9.062;2023-06-19T01:13:08;96635.91;;;25.03;42.42
76611;BME280;65503;48.534;9.062;2023-06-19T01:15:37;96672.13;;;24.94;43.12
76611;BME280;65503;48.534;9.062;2023-06-19T01:18:05;96663.69;;;24.95;42.30
76611;BME280;65503;48.534;9.062;2023-06-19T01:20:32;96658.84;;;25.09;41.67
76611;BME280;65503;48.534;9.062;2023-06-19T01:23:09;96682.09;;;25.14;41.18
76611;BME280;65503;48.534;9.062;2023-06-19T01:25:36;96687.28;;;25.19;42.10
76611;BME280;65503;48.534;9.062;2023-06-19T01:28:05;96698.91;;;25.11;42.28
76611;BME280;65503;48.534;9.062;2023-06-19T01:30:33;96698.25;;;24.93;42.40
76611;BME280;65503;48.534;9.062;2023-06-19T01:33:08;96700.16;;;24.93;42.06
76611;BME280;65503;48.534;9.062;2023-06-19T01:35:38;96693.66;;;24.94;42.22
76611;BME280;65503;48.534;9.062;2023-06-19T01:38:05;96694.63;;;24.89;41.81
76611;BME280;65503;48.534;9.062;2023-06-19T01:40:33;96697.31;;;24.89;42.29
76611;BME280;65503;48.534;9.062;2023-06-19T01:43:00;96694.94;;;24.88;42.02
76611;BME280;65503;48.534;9.062;2023-06-19T01:45:28;96701.63;;;24.82;42.66
76611;BME280;65503;48.534;9.062;2023-06-19T01:47:56;96713.44;;;24.68;42.61
76611;BME280;65503;48.534;9.062;2023-06-19T01:50:23;96719.94;;;24.67;43.02
76611;BME280;65503;48.534;9.062;2023-06-19T01:52:50;96722.63;;;24.67;42.85
76611;BME280;65503;48.534;9.062;2023-06-19T01:55:17;96716.31;;;24.63;43.11
76611;BME280;65503;48.534;9.062;2023-06-19T01:57:44;96712.38;;;24.61;42.86
76611;BME280;65503;48.534;9.062;2023-06-19T02:00:12;96719.19;;;24.58;43.15
76611;BME280;65503;48.534;9.062;2023-06-19T02:02:39;96715.31;;;24.47;43.38
76611;BME280;65503;48.534;9.062;2023-06-19T02:05:06;96705.66;;;24.46;43.12
76611;BME280;65503;48.534;9.062;2023-06-19T02:07:32;96710.31;;;24.37;43.45
76611;BME280;65503;48.534;9.062;2023-06-19T02:09:59;96702.56;;;24.36;43.58
76611;BME280;65503;48.534;9.062;2023-06-19T02:12:25;96698.94;;;24.32;43.56
76611;BME280;65503;48.534;9.062;2023-06-19T02:14:52;96698.16;;;24.31;44.03
76611;BME280;65503;48.534;9.062;2023-06-19T02:17:18;96698.00;;;24.27;44.43
76611;BME280;65503;48.534;9.062;2023-06-19T02:19:45;96706.41;;;24.26;44.60
76611;BME280;65503;48.534;9.062;2023-06-19T02:22:12;96701.66;;;24.23;44.71
76611;BME280;65503;48.534;9.062;2023-06-19T02:24:38;96696.63;;;24.13;45.36
76611;BME280;65503;48.534;9.062;2023-06-19T02:27:06;96692.22;;;24.08;45.38
76611;BME280;65503;48.534;9.062;2023-06-19T02:29:32;96696.31;;;24.06;45.64
76611;BME280;65503;48.534;9.062;2023-06-19T02:32:02;96703.91;;;24.04;45.84
76611;BME280;65503;48.534;9.062;2023-06-19T02:34:29;96709.94;;;24.01;46.03
76611;BME280;65503;48.534;9.062;2023-06-19T02:36:55;96706.16;;;24.02;46.42
76611;BME280;65503;48.534;9.062;2023-06-19T02:39:22;96704.88;;;24.08;45.73
76611;BME280;65503;48.534;9.062;2023-06-19T02:41:49;96699.84;;;23.98;46.79
76611;BME280;65503;48.534;9.062;2023-06-19T02:44:15;96707.91;;;23.98;46.72
76611;BME280;65503;48.534;9.062;2023-06-19T02:46:42;96723.44;;;23.92;46.99
76611;BME280;65503;48.534;9.062;2023-06-19T02:49:08;96717.88;;;23.88;46.78
76611;BME280;65503;48.534;9.062;2023-06-19T02:51:35;96721.66;;;23.96;46.81
76611;BME280;65503;48.534;9.062;2023-06-19T02:54:01;96731.44;;;24.01;46.82
76611;BME280;65503;48.534;9.062;2023-06-19T02:56:28;96730.66;;;24.00;46.84
76611;BME280;65503;48.534;9.062;2023-06-19T02:58:55;96734.78;;;23.98;46.95
76611;BME280;65503;48.534;9.062;2023-06-19T03:01:21;96728.94;;;23.96;47.09
76611;BME280;65503;48.534;9.062;2023-06-19T03:03:48;96739.69;;;23.96;47.32
76611;BME280;65503;48.534;9.062;2023-06-19T03:06:15;96738.13;;;23.95;47.10
76611;BME280;65503;48.534;9.062;2023-06-19T03:08:41;96744.16;;;23.92;47.57
76611;BME280;65503;48.534;9.062;2023-06-19T03:11:08;96743.34;;;23.91;47.09
76611;BME280;65503;48.534;9.062;2023-06-19T03:13:49;96740.31;;;23.93;47.18
76611;BME280;65503;48.534;9.062;2023-06-19T03:16:16;96745.25;;;23.91;47.37
76611;BME280;65503;48.534;9.062;2023-06-19T03:18:43;96750.78;;;23.85;47.48
76611;BME280;65503;48.534;9.062;2023-06-19T03:21:12;96748.72;;;23.82;47.67
76611;BME280;65503;48.534;9.062;2023-06-19T03:23:39;96740.22;;;23.80;47.58
76611;BME280;65503;48.534;9.062;2023-06-19T03:26:08;96741.78;;;23.81;47.67
76611;BME280;65503;48.534;9.062;2023-06-19T03:28:34;96744.63;;;23.85;47.63
76611;BME280;65503;48.534;9.062;2023-06-19T03:31:01;96742.25;;;23.83;47.33
76611;BME280;65503;48.534;9.062;2023-06-19T03:33:27;96739.88;;;23.82;47.66
76611;BME280;65503;48.534;9.062;2023-06-19T03:35:54;96748.09;;;23.85;47.30
76611;BME280;65503;48.534;9.062;2023-06-19T03:38:21;96750.16;;;23.88;47.55
76611;BME280;65503;48.534;9.062;2023-06-19T03:40:48;96753.31;;;23.82;47.59
76611;BME280;65503;48.534;9.062;2023-06-19T03:43:14;96757.78;;;23.69;48.00
76611;BME280;65503;48.534;9.062;2023-06-19T03:45:41;96766.63;;;23.61;48.32
76611;BME280;65503;48.534;9.062;2023-06-19T03:48:07;96766.31;;;23.54;48.35
76611;BME280;65503;48.534;9.062;2023-06-19T03:50:34;96759.50;;;23.65;48.24
76611;BME280;65503;48.534;9.062;2023-06-19T03:53:01;96761.88;;;23.58;48.09
76611;BME280;65503;48.534;9.062;2023-06-19T03:55:27;96763.78;;;23.66;47.89
76611;BME280;65503;48.534;9.062;2023-06-19T03:57:54;96768.06;;;23.50;48.50
76611;BME280;65503;48.534;9.062;2023-06-19T04:00:20;96766.78;;;23.22;49.58
76611;BME280;65503;48.534;9.062;2023-06-19T04:02:47;96768.53;;;23.18;49.69
76611;BME280;65503;48.534;9.062;2023-06-19T04:05:14;96764.09;;;23.04;50.99
76611;BME280;65503;48.534;9.062;2023-06-19T04:07:41;96758.56;;;23.01;52.37
76611;BME280;65503;48.534;9.062;2023-06-19T04:10:09;96756.63;;;22.93;52.49
76611;BME280;65503;48.534;9.062;2023-06-19T04:12:36;96753.63;;;22.77;52.93
76611;BME280;65503;48.534;9.062;2023-06-19T04:15:03;96761.44;;;22.65;54.08
76611;BME280;65503;48.534;9.062;2023-06-19T04:17:30;96761.56;;;22.51;53.71
76611;BME280;65503;48.534;9.062;2023-06-19T04:19:57;96761.41;;;22.56;53.62
76611;BME280;65503;48.534;9.062;2023-06-19T04:22:24;96755.75;;;22.58;53.88
76611;BME280;65503;48.534;9.062;2023-06-19T04:24:50;96756.09;;;22.65;54.81
76611;BME280;65503;48.534;9.062;2023-06-19T04:27:16;96760.81;;;22.68;53.94
76611;BME280;65503;48.534;9.062;2023-06-19T04:29:44;96762.41;;;22.69;53.80
76611;BME280;65503;48.534;9.062;2023-06-19T04:32:10;96760.50;;;22.70;53.60
76611;BME280;65503;48.534;9.062;2023-06-19T04:34:41;96760.56;;;22.78;53.12
76611;BME280;65503;48.534;9.062;2023-06-19T04:37:12;96764.50;;;22.81;53.17
76611;BME280;65503;48.534;9.062;2023-06-19T04:39:39;96768.63;;;22.87;53.21
76611;BME280;65503;48.534;9.062;2023-06-19T04:42:06;96770.03;;;22.84;52.37
76611;BME280;65503;48.534;9.062;2023-06-19T04:44:32;96761.06;;;22.89;52.63
76611;BME280;65503;48.534;9.062;2023-06-19T04:47:00;96767.88;;;23.03;51.88
76611;BME280;65503;48.534;9.062;2023-06-19T04:49:29;96761.09;;;23.23;51.61
76611;BME280;65503;48.534;9.062;2023-06-19T04:51:57;96769.63;;;23.34;51.06
76611;BME280;65503;48.534;9.062;2023-06-19T04:54:24;96766.28;;;23.37;50.74
76611;BME280;65503;48.534;9.062;2023-06-19T04:56:51;96763.63;;;23.37;50.94
76611;BME280;65503;48.534;9.062;2023-06-19T04:59:19;96768.19;;;23.45;51.00
76611;BME280;65503;48.534;9.062;2023-06-19T05:01:46;96777.72;;;23.51;51.29
76611;BME280;65503;48.534;9.062;2023-06-19T05:04:12;96784.03;;;23.55;50.66
76611;BME280;65503;48.534;9.062;2023-06-19T05:06:39;96782.75;;;23.61;50.80
76611;BME280;65503;48.534;9.062;2023-06-19T05:09:06;96781.19;;;23.60;50.71
76611;BME280;65503;48.534;9.062;2023-06-19T05:11:32;96778.97;;;23.62;51.00
76611;BME280;65503;48.534;9.062;2023-06-19T05:13:59;96785.28;;;23.66;50.90
76611;BME280;65503;48.534;9.062;2023-06-19T05:16:26;96782.28;;;23.68;50.65
76611;BME280;65503;48.534;9.062;2023-06-19T05:18:52;96777.06;;;23.71;50.59
76611;BME280;65503;48.534;9.062;2023-06-19T05:21:19;96782.75;;;23.70;50.76
76611;BME280;65503;48.534;9.062;2023-06-19T05:23:46;96784.94;;;23.76;51.03
76611;BME280;65503;48.534;9.062;2023-06-19T05:26:17;96771.16;;;23.95;50.46
76611;BME280;65503;48.534;9.062;2023-06-19T05:28:43;96780.47;;;24.15;50.10
76611;BME280;65503;48.534;9.062;2023-06-19T05:31:10;96782.66;;;24.13;49.81
76611;BME280;65503;48.534;9.062;2023-06-19T05:33:36;96778.72;;;24.19;49.62
76611;BME280;65503;48.534;9.062;2023-06-19T05:36:03;96787.72;;;24.32;49.45
76611;BME280;65503;48.534;9.062;2023-06-19T05:38:30;96775.69;;;24.29;49.45
76611;BME280;65503;48.534;9.062;2023-06-19T05:40:57;96774.03;;;24.45;49.42
76611;BME280;65503;48.534;9.062;2023-06-19T05:43:24;96778.25;;;24.55;49.07
76611;BME280;65503;48.534;9.062;2023-06-19T05:45:53;96785.28;;;24.77;49.19
76611;BME280;65503;48.534;9.062;2023-06-19T05:48:22;96778.25;;;24.93;48.47
76611;BME280;65503;48.534;9.062;2023-06-19T05:50:48;96786.50;;;24.88;48.61
76611;BME280;65503;48.534;9.062;2023-06-19T05:53:15;96793.75;;;24.96;48.61
76611;BME280;65503;48.534;9.062;2023-06-19T05:55:42;96801.53;;;25.18;48.52
76611;BME280;65503;48.534;9.062;2023-06-19T05:58:08;96801.78;;;25.25;48.51
76611;BME280;65503;48.534;9.062;2023-06-19T06:00:35;96812.28;;;25.18;47.95
76611;BME280;65503;48.534;9.062;2023-06-19T06:03:01;96810.63;;;25.34;47.95
76611;BME280;65503;48.534;9.062;2023-06-19T06:05:28;96813.75;;;25.36;47.85
76611;BME280;65503;48.534;9.062;2023-06-19T06:07:55;96820.84;;;25.20;47.89
76611;BME280;65503;48.534;9.062;2023-06-19T06:10:23;96825.56;;;25.23;47.55
76611;BME280;65503;48.534;9.062;2023-06-19T06:12:51;96826.47;;;24.77;48.67
76611;BME280;65503;48.534;9.062;2023-06-19T06:15:17;96823.78;;;24.77;48.81
76611;BME280;65503;48.534;9.062;2023-06-19T06:17:44;96824.28;;;24.70;49.10
76611;BME280;65503;48.534;9.062;2023-06-19T06:20:11;96817.94;;;24.66;49.15
76611;BME280;65503;48.534;9.062;2023-06-19T06:22:39;96825.63;;;24.47;49.81
76611;BME280;65503;48.534;9.062;2023-06-19T06:25:06;96826.84;;;24.58;49.56
76611;BME280;65503;48.534;9.062;2023-06-19T06:27:37;96821.09;;;24.68;49.57
76611;BME280;65503;48.534;9.062;2023-06-19T06:30:04;96829.19;;;24.68;49.15
76611;BME280;65503;48.534;9.062;2023-06-19T06:32:31;96835.59;;;24.93;49.09
76611;BME280;65503;48.534;9.062;2023-06-19T06:34:57;96836.34;;;25.23;47.98
76611;BME280;65503;48.534;9.062;2023-06-19T06:37:25;96839.13;;;25.35;48.32
76611;BME280;65503;48.534;9.062;2023-06-19T06:39:52;96835.75;;;25.68;47.96
76611;BME280;65503;48.534;9.062;2023-06-19T06:42:18;96835.19;;;25.95;46.70
76611;BME280;65503;48.534;9.062;2023-06-19T06:44:45;96841.06;;;26.09;46.19
76611;BME280;65503;48.534;9.062;2023-06-19T06:47:11;96840.00;;;25.89;46.58
76611;BME280;65503;48.534;9.062;2023-06-19T06:49:38;96841.06;;;25.97;46.39
76611;BME280;65503;48.534;9.062;2023-06-19T06:52:06;96835.84;;;25.92;46.92
76611;BME280;65503;48.534;9.062;2023-06-19T06:54:33;96844.13;;;25.87;46.72
76611;BME280;65503;48.534;9.062;2023-06-19T06:56:59;96842.97;;;25.76;47.20
76611;BME280;65503;48.534;9.062;2023-06-19T06:59:26;96851.88;;;26.09;46.83
76611;BME280;65503;48.534;9.062;2023-06-19T07:01:54;96844.22;;;26.32;45.89
76611;BME280;65503;48.534;9.062;2023-06-19T07:04:22;96858.06;;;26.30;45.67
76611;BME280;65503;48.534;9.062;2023-06-19T07:06:49;96847.25;;;26.30;45.70
76611;BME280;65503;48.534;9.062;2023-06-19T07:09:15;96853.97;;;26.24;46.02
76611;BME280;65503;48.534;9.062;2023-06-19T07:11:42;96858.41;;;26.20;45.99
76611;BME280;65503;48.534;9.062;2023-06-19T07:14:08;96849.97;;;26.30;45.72
76611;BME280;65503;48.534;9.062;2023-06-19T07:16:35;96854.28;;;26.56;46.18
76611;BME280;65503;48.534;9.062;2023-06-19T07:19:02;96857.22;;;26.75;45.91
76611;BME280;65503;48.534;9.062;2023-06-19T07:21:28;96859.06;;;26.95;45.47
76611;BME280;65503;48.534;9.062;2023-06-19T07:23:56;96859.50;;;27.22;45.28
76611;BME280;65503;48.534;9.062;2023-06-19T07:26:23;96862.88;;;27.19;44.10
76611;BME280;65503;48.534;9.062;2023-06-19T07:28:50;96859.75;;;27.04;44.00
76611;BME280;65503;48.534;9.062;2023-06-19T07:31:16;96866.47;;;27.23;44.04
76611;BME280;65503;48.534;9.062;2023-06-19T07:33:43;96879.13;;;28.11;42.24
76611;BME280;65503;48.534;9.062;2023-06-19T07:36:09;96881.22;;;29.90;39.42
76611;BME280;65503;48.534;9.062;2023-06-19T07:38:41;96890.09;;;31.62;35.30
76611;BME280;65503;48.534;9.062;2023-06-19T07:41:08;96882.09;;;32.36;33.95
76611;BME280;65503;48.534;9.062;2023-06-19T07:43:37;96887.31;;;33.36;31.86
76611;BME280;65503;48.534;9.062;2023-06-19T07:46:04;96874.56;;;33.54;31.06
76611;BME280;65503;48.534;9.062;2023-06-19T07:48:31;96873.91;;;32.73;31.37
76611;BME280;65503;48.534;9.062;2023-06-19T07:50:58;96872.50;;;32.12;32.42
76611;BME280;65503;48.534;9.062;2023-06-19T07:53:24;96868.44;;;31.43;34.07
76611;BME280;65503;48.534;9.062;2023-06-19T07:55:51;96865.91;;;31.04;35.10
76611;BME280;65503;48.534;9.062;2023-06-19T07:58:19;96875.34;;;30.46;36.56
76611;BME280;65503;48.534;9.062;2023-06-19T08:00:46;96880.13;;;29.75;37.46
76611;BME280;65503;48.534;9.062;2023-06-19T08:03:13;96874.25;;;29.54;37.83
76611;BME280;65503;48.534;9.062;2023-06-19T08:05:39;96886.53;;;30.21;36.43
76611;BME280;65503;48.534;9.062;2023-06-19T08:08:06;96875.88;;;30.97;35.75
76611;BME280;65503;48.534;9.062;2023-06-19T08:10:33;96866.31;;;31.06;35.17
76611;BME280;65503;48.534;9.062;2023-06-19T08:12:59;96875.44;;;30.72;35.83
76611;BME280;65503;48.534;9.062;2023-06-19T08:15:26;96878.81;;;31.60;35.03
76611;BME280;65503;48.534;9.062;2023-06-19T08:17:53;96875.44;;;31.44;33.88
76611;BME280;65503;48.534;9.062;2023-06-19T08:20:20;96870.75;;;30.92;34.34
76611;BME280;65503;48.534;9.062;2023-06-19T08:22:48;96875.59;;;31.28;33.42
76611;BME280;65503;48.534;9.062;2023-06-19T08:25:15;96876.81;;;31.87;31.94
76611;BME280;65503;48.534;9.062;2023-06-19T08:27:46;96876.09;;;32.60;31.84
76611;BME280;65503;48.534;9.062;2023-06-19T08:30:13;96870.16;;;32.88;31.47
76611;BME280;65503;48.534;9.062;2023-06-19T08:32:44;96863.50;;;33.33;30.60
76611;BME280;65503;48.534;9.062;2023-06-19T08:35:11;96865.56;;;32.99;30.49
76611;BME280;65503;48.534;9.062;2023-06-19T08:37:46;96869.44;;;32.95;30.65
76611;BME280;65503;48.534;9.062;2023-06-19T08:40:13;96868.25;;;33.43;30.61
76611;BME280;65503;48.534;9.062;2023-06-19T08:42:39;96861.13;;;33.93;29.37
76611;BME280;65503;48.534;9.062;2023-06-19T08:45:09;96855.97;;;33.78;29.61
76611;BME280;65503;48.534;9.062;2023-06-19T08:47:38;96868.31;;;34.48;28.44
76611;BME280;65503;48.534;9.062;2023-06-19T08:50:05;96859.41;;;35.36;27.54
76611;BME280;65503;48.534;9.062;2023-06-19T08:52:32;96859.81;;;34.88;26.21
76611;BME280;65503;48.534;9.062;2023-06-19T08:54:58;96866.41;;;34.52;25.98
76611;BME280;65503;48.534;9.062;2023-06-19T08:57:38;96858.56;;;33.56;27.45
76611;BME280;65503;48.534;9.062;2023-06-19T09:00:06;96856.06;;;32.09;28.57
76611;BME280;65503;48.534;9.062;2023-06-19T09:02:50;96850.28;;;31.80;29.10
76611;BME280;65503;48.534;9.062;2023-06-19T09:05:41;96855.41;;;31.85;30.16
76611;BME280;65503;48.534;9.062;2023-06-19T09:08:13;96852.91;;;32.77;29.37
76611;BME280;65503;48.534;9.062;2023-06-19T09:10:42;96861.03;;;32.33;29.71
76611;BME280;65503;48.534;9.062;2023-06-19T09:13:09;96860.91;;;31.59;29.77
76611;BME280;65503;48.534;9.062;2023-06-19T09:15:37;96860.28;;;31.43;29.93
76611;BME280;65503;48.534;9.062;2023-06-19T09:18:08;96859.34;;;31.32;29.86
76611;BME280;65503;48.534;9.062;2023-06-19T09:20:40;96873.25;;;31.53;30.37
76611;BME280;65503;48.534;9.062;2023-06-19T09:23:11;96862.94;;;31.39;30.45
76611;BME280;65503;48.534;9.062;2023-06-19T09:25:49;96864.84;;;31.39;30.91
76611;BME280;65503;48.534;9.062;2023-06-19T09:28:20;96854.91;;;31.50;31.06
76611;BME280;65503;48.534;9.062;2023-06-19T09:30:55;96851.09;;;31.28;30.59
76611;BME280;65503;48.534;9.062;2023-06-19T09:33:33;96848.94;;;31.37;31.92
76611;BME280;65503;48.534;9.062;2023-06-19T09:36:01;96840.56;;;32.46;29.21
76611;BME280;65503;48.534;9.062;2023-06-19T09:38:30;96849.44;;;32.80;28.89
76611;BME280;65503;48.534;9.062;2023-06-19T09:41:00;96843.19;;;33.27;28.50
76611;BME280;65503;48.534;9.062;2023-06-19T09:43:33;96847.09;;;33.26;28.69
76611;BME280;65503;48.534;9.062;2023-06-19T09:46:02;96848.09;;;33.66;27.77
76611;BME280;65503;48.534;9.062;2023-06-19T09:48:31;96842.69;;;33.73;27.91
76611;BME280;65503;48.534;9.062;2023-06-19T09:51:18;96846.25;;;33.84;27.33
76611;BME280;65503;48.534;9.062;2023-06-19T09:53:46;96849.00;;;33.91;27.00
76611;BME280;65503;48.534;9.062;2023-06-19T09:56:14;96835.34;;;33.91;27.30
76611;BME280;65503;48.534;9.062;2023-06-19T09:58:44;96839.66;;;33.95;27.26
76611;BME280;65503;48.534;9.062;2023-06-19T10:01:12;96834.09;;;33.71;27.46
76611;BME280;65503;48.534;9.062;2023-06-19T10:03:39;96841.25;;;34.03;27.53
76611;BME280;65503;48.534;9.062;2023-06-19T10:06:13;96838.94;;;34.16;26.67
76611;BME280;65503;48.534;9.062;2023-06-19T10:09:08;96830.91;;;33.61;27.33
76611;BME280;65503;48.534;9.062;2023-06-19T10:11:50;96833.94;;;33.49;27.84
76611;BME280;65503;48.534;9.062;2023-06-19T10:14:21;96836.00;;;33.05;28.09
76611;BME280;65503;48.534;9.062;2023-06-19T10:16:48;96845.16;;;32.83;29.05
76611;BME280;65503;48.534;9.062;2023-06-19T10:19:16;96835.97;;;32.57;28.79
76611;BME280;65503;48.534;9.062;2023-06-19T10:21:49;96835.38;;;32.34;29.29
76611;BME280;65503;48.534;9.062;2023-06-19T10:24:17;96833.91;;;32.47;29.50
76611;BME280;65503;48.534;9.062;2023-06-19T10:27:00;96820.41;;;33.02;29.12
76611;BME280;65503;48.534;9.062;2023-06-19T10:29:38;96824.38;;;33.15;28.25
76611;BME280;65503;48.534;9.062;2023-06-19T10:32:06;96812.84;;;33.39;27.65
76611;BME280;65503;48.534;9.062;2023-06-19T10:34:34;96816.16;;;33.70;28.48
76611;BME280;65503;48.534;9.062;2023-06-19T10:37:00;96820.03;;;33.72;27.19
76611;BME280;65503;48.534;9.062;2023-06-19T10:39:27;96820.28;;;32.88;28.72
76611;BME280;65503;48.534;9.062;2023-06-19T10:41:54;96818.25;;;33.25;29.00
76611;BME280;65503;48.534;9.062;2023-06-19T10:44:23;96819.22;;;33.65;28.23
76611;BME280;65503;48.534;9.062;2023-06-19T10:46:52;96812.34;;;33.99;27.36
76611;BME280;65503;48.534;9.062;2023-06-19T10:49:19;96809.09;;;33.69;27.02
76611;BME280;65503;48.534;9.062;2023-06-19T10:51:48;96815.38;;;33.73;27.17
76611;BME280;65503;48.534;9.062;2023-06-19T10:54:15;96801.28;;;33.67;27.09
76611;BME280;65503;48.534;9.062;2023-06-19T10:56:42;96798.41;;;34.29;26.57
76611;BME280;65503;48.534;9.062;2023-06-19T10:59:10;96809.84;;;33.58;27.03
76611;BME280;65503;48.534;9.062;2023-06-19T11:01:42;96800.44;;;33.52;27.39
76611;BME280;65503;48.534;9.062;2023-06-19T11:04:10;96804.53;;;34.01;26.82
76611;BME280;65503;48.534;9.062;2023-06-19T11:06:39;96805.41;;;34.26;25.80
76611;BME280;65503;48.534;9.062;2023-06-19T11:09:07;96797.25;;;34.65;25.58
76611;BME280;65503;48.534;9.062;2023-06-19T11:14:09;96783.78;;;33.79;25.50
76611;BME280;65503;48.534;9.062;2023-06-19T11:16:42;96796.06;;;34.27;25.21
76611;BME280;65503;48.534;9.062;2023-06-19T11:19:14;96779.66;;;34.38;25.51
76611;BME280;65503;48.534;9.062;2023-06-19T11:21:45;96780.81;;;34.26;25.63
76611;BME280;65503;48.534;9.062;2023-06-19T11:24:13;96771.78;;;34.19;25.08
76611;BME280;65503;48.534;9.062;2023-06-19T11:26:48;96770.94;;;33.83;25.62
76611;BME280;65503;48.534;9.062;2023-06-19T11:29:20;96770.44;;;33.59;26.15
76611;BME280;65503;48.534;9.062;2023-06-19T11:31:48;96773.28;;;33.81;26.34
76611;BME280;65503;48.534;9.062;2023-06-19T11:34:16;96774.09;;;34.02;26.19
76611;BME280;65503;48.534;9.062;2023-06-19T11:36:44;96772.63;;;34.40;25.67
76611;BME280;65503;48.534;9.062;2023-06-19T11:39:12;96771.88;;;34.43;24.30
76611;BME280;65503;48.534;9.062;2023-06-19T11:41:45;96769.50;;;34.28;25.31
76611;BME280;65503;48.534;9.062;2023-06-19T11:44:12;96769.88;;;34.40;24.81
76611;BME280;65503;48.534;9.062;2023-06-19T11:46:38;96771.84;;;34.65;24.30
76611;BME280;65503;48.534;9.062;2023-06-19T11:49:13;96763.28;;;34.84;24.03
76611;BME280;65503;48.534;9.062;2023-06-19T11:51:40;96767.16;;;34.94;23.40
76611;BME280;65503;48.534;9.062;2023-06-19T11:54:09;96756.25;;;34.83;24.24
76611;BME280;65503;48.534;9.062;2023-06-19T11:56:37;96753.09;;;34.95;24.72
76611;BME280;65503;48.534;9.062;2023-06-19T11:59:04;96759.34;;;35.06;24.25
76611;BME280;65503;48.534;9.062;2023-06-19T12:01:35;96765.56;;;35.17;23.90
76611;BME280;65503;48.534;9.062;2023-06-19T12:04:02;96760.13;;;34.93;23.90
76611;BME280;65503;48.534;9.062;2023-06-19T12:06:30;96747.63;;;34.81;24.10
76611;BME280;65503;48.534;9.062;2023-06-19T12:08:57;96754.69;;;34.82;24.32
76611;BME280;65503;48.534;9.062;2023-06-19T12:11:23;96758.19;;;34.82;23.70
76611;BME280;65503;48.534;9.062;2023-06-19T12:13:51;96755.84;;;34.60;24.63
76611;BME280;65503;48.534;9.062;2023-06-19T12:16:19;96749.19;;;34.93;23.95
76611;BME280;65503;48.534;9.062;2023-06-19T12:18:46;96751.53;;;35.01;24.03
76611;BME280;65503;48.534;9.062;2023-06-19T12:21:13;96749.88;;;35.43;23.79
76611;BME280;65503;48.534;9.062;2023-06-19T12:23:59;96748.69;;;35.44;24.04
76611;BME280;65503;48.534;9.062;2023-06-19T12:26:26;96753.47;;;35.26;23.19
76611;BME280;65503;48.534;9.062;2023-06-19T12:28:52;96744.44;;;35.21;23.62
76611;BME280;65503;48.534;9.062;2023-06-19T12:31:19;96737.47;;;34.89;24.07
76611;BME280;65503;48.534;9.062;2023-06-19T12:33:46;96737.09;;;34.97;23.98
76611;BME280;65503;48.534;9.062;2023-06-19T12:36:14;96742.09;;;35.16;23.63
76611;BME280;65503;48.534;9.062;2023-06-19T12:38:41;96735.91;;;34.80;23.90
76611;BME280;65503;48.534;9.062;2023-06-19T12:41:07;96739.81;;;34.48;24.17
76611;BME280;65503;48.534;9.062;2023-06-19T12:43:34;96730.44;;;34.06;25.22
76611;BME280;65503;48.534;9.062;2023-06-19T12:46:01;96728.59;;;33.31;25.56
76611;BME280;65503;48.534;9.062;2023-06-19T12:48:28;96728.50;;;33.13;26.35
76611;BME280;65503;48.534;9.062;2023-06-19T12:50:55;96734.03;;;33.20;26.25
76611;BME280;65503;48.534;9.062;2023-06-19T12:53:22;96725.50;;;33.39;25.74
76611;BME280;65503;48.534;9.062;2023-06-19T12:55:52;96718.97;;;33.54;25.54
76611;BME280;65503;48.534;9.062;2023-06-19T12:58:28;96723.78;;;34.00;24.79
76611;BME280;65503;48.534;9.062;2023-06-19T13:00:55;96724.19;;;34.23;25.12
76611;BME280;65503;48.534;9.062;2023-06-19T13:03:21;96714.81;;;34.67;24.27
76611;BME280;65503;48.534;9.062;2023-06-19T13:05:48;96718.75;;;34.69;23.47
76611;BME280;65503;48.534;9.062;2023-06-19T13:08:15;96717.19;;;34.79;23.68